Time;durP1;ratioP1;P1;durP2;ratioP2;P2;SDS_P1;SDS_P2;PMS_P1;PMS_P2;Temp;Humidity;BMP_temperature;BMP_pressure;BME280_temperature;BME280_humidity;BME280_pressure;Samples;Min_cycle;Max_cycle;Signal;HPM_P1;HPM_P2
2023/03/04 00:01:17;;;;;;;;;;;7.40;99.90;;;;;;5060598;28;20396;-77
2023/03/04 00:03:42;;;;;;;;;;;6.30;99.90;;;;;;5041342;28;19924;-77
2023/03/04 00:06:08;;;;;;;;;;;6.20;99.90;;;;;;5041099;28;19921;-77
2023/03/04 00:08:35;;;;;;;;;;;6.30;99.90;;;;;;5021271;28;19920;-77
2023/03/04 00:11:03;;;;;;;;;;;6.20;99.90;;;;;;5052963;28;19951;-77
2023/03/04 00:13:29;;;;;;;;;;;6.20;99.90;;;;;;5036065;28;19920;-77
2023/03/04 00:15:54;;;;;;;;;;;6.30;99.90;;;;;;5045482;28;19962;-77
2023/03/04 00:18:20;;;;;;;;;;;7.30;99.90;;;;;;5053728;28;19972;-77
2023/03/04 00:20:50;;;;;;;;;;;6.70;99.90;;;;;;5053834;28;19928;-77
2023/03/04 00:23:16;;;;;;;;;;;6.20;99.90;;;;;;5059272;28;19917;-76
2023/03/04 00:25:41;;;;;;;;;;;7.00;99.90;;;;;;5036372;28;20003;-77
2023/03/04 00:28:08;;;;;;;;;;;6.30;99.90;;;;;;5040541;28;19948;-77
2023/03/04 00:30:36;;;;;;;;;;;5.80;99.90;;;;;;5057138;28;19972;-77
2023/03/04 00:33:05;;;;;;;;;;;6.20;99.90;;;;;;5021393;28;19917;-77
2023/03/04 00:35:35;;;;;;;;;;;6.20;99.90;;;;;;5033493;28;19971;-77
2023/03/04 00:38:02;;;;;;;;;;;6.30;99.90;;;;;;5036799;28;19916;-76
2023/03/04 00:40:27;;;;;;;;;;;6.20;99.90;;;;;;5047175;28;19960;-76
2023/03/04 00:42:53;;;;;;;;;;;7.20;99.90;;;;;;5048282;28;19923;-76
2023/03/04 00:45:18;;;;;;;;;;;6.70;99.90;;;;;;5020198;28;19917;-77
2023/03/04 00:47:47;;;;;;;;;;;7.10;99.90;;;;;;5055354;28;19917;-78
2023/03/04 00:50:12;;;;;;;;;;;6.20;99.90;;;;;;5026331;28;19943;-78
2023/03/04 00:52:40;;;;;;;;;;;6.20;99.90;;;;;;5029532;28;19916;-78
2023/03/04 00:55:06;;;;;;;;;;;6.20;99.90;;;;;;5023173;28;19917;-77
2023/03/04 00:57:33;;;;;;;;;;;6.20;99.90;;;;;;5029198;28;19917;-77
2023/03/04 00:59:58;;;;;;;;;;;6.20;99.90;;;;;;5018011;28;19940;-77
2023/03/04 01:02:24;;;;;;;;;;;6.10;99.90;;;;;;5043636;28;19981;-78
2023/03/04 01:04:53;;;;;;;;;;;7.40;99.90;;;;;;5024826;28;19924;-78
2023/03/04 01:07:19;;;;;;;;;;;6.20;99.90;;;;;;5028524;28;19916;-78
2023/03/04 01:09:44;;;;;;;;;;;6.20;99.90;;;;;;5040086;28;19978;-77
2023/03/04 01:12:12;;;;;;;;;;;7.40;99.90;;;;;;5030801;28;19923;-78
2023/03/04 01:14:37;;;;;;;;;;;6.20;99.90;;;;;;5038144;28;19916;-76
2023/03/04 01:17:05;;;;;;;;;;;6.70;99.90;;;;;;5024249;28;19924;-78
2023/03/04 01:19:30;;;;;;;;;;;6.20;99.90;;;;;;5017600;28;19924;-77
2023/03/04 01:21:56;;;;;;;;;;;6.70;99.90;;;;;;5031612;28;20055;-78
2023/03/04 01:24:21;;;;;;;;;;;6.50;99.90;;;;;;5032113;28;19916;-77
2023/03/04 01:26:51;;;;;;;;;;;6.00;99.90;;;;;;5040259;28;19917;-77
2023/03/04 01:29:20;;;;;;;;;;;6.20;99.90;;;;;;5020523;28;20530;-77
2023/03/04 01:31:52;;;;;;;;;;;6.20;99.90;;;;;;5051396;28;19923;-77
2023/03/04 01:34:17;;;;;;;;;;;6.20;99.90;;;;;;5045270;28;19942;-76
2023/03/04 01:36:45;;;;;;;;;;;6.20;99.90;;;;;;5047110;28;19921;-76
2023/03/04 01:39:10;;;;;;;;;;;6.20;99.90;;;;;;5046212;28;19967;-76
2023/03/04 01:41:36;;;;;;;;;;;6.10;99.90;;;;;;5031109;28;19916;-76
2023/03/04 01:44:02;;;;;;;;;;;6.80;99.90;;;;;;5029565;28;20029;-76
2023/03/04 01:46:28;;;;;;;;;;;6.10;99.90;;;;;;5035793;28;19924;-76
2023/03/04 01:48:57;;;;;;;;;;;6.10;99.90;;;;;;5035149;28;19916;-76
2023/03/04 01:51:23;;;;;;;;;;;6.10;99.90;;;;;;5044927;28;19920;-76
2023/03/04 01:53:52;;;;;;;;;;;6.10;99.90;;;;;;5057238;28;19917;-76
2023/03/04 01:56:19;;;;;;;;;;;5.30;99.90;;;;;;5035730;28;19974;-76
2023/03/04 01:58:44;;;;;;;;;;;7.30;99.90;;;;;;5032165;28;19967;-76
2023/03/04 02:01:11;;;;;;;;;;;6.10;99.90;;;;;;5038275;28;20338;-76
2023/03/04 02:03:36;;;;;;;;;;;6.10;99.90;;;;;;5035031;28;20288;-76
2023/03/04 02:06:02;;;;;;;;;;;7.10;99.90;;;;;;5041535;28;19921;-76
2023/03/04 02:08:28;;;;;;;;;;;6.10;99.90;;;;;;5064713;28;19916;-76
2023/03/04 02:10:53;;;;;;;;;;;7.00;99.90;;;;;;5046138;28;20003;-76
2023/03/04 02:13:21;;;;;;;;;;;6.10;99.90;;;;;;5068351;28;19916;-76
2023/03/04 02:15:46;;;;;;;;;;;6.10;99.90;;;;;;5059742;28;20328;-76
2023/03/04 02:18:17;;;;;;;;;;;6.60;99.90;;;;;;5053021;28;19916;-76
2023/03/04 02:20:43;;;;;;;;;;;6.10;99.90;;;;;;5044780;28;20438;-76
2023/03/04 02:23:27;;;;;;;;;;;6.10;99.90;;;;;;5025568;28;19917;-76
2023/03/04 02:26:05;;;;;;;;;;;6.10;99.90;;;;;;5041347;28;19923;-76
2023/03/04 02:28:31;;;;;;;;;;;6.10;99.90;;;;;;5011023;28;19920;-76
2023/03/04 02:30:57;;;;;;;;;;;7.00;99.90;;;;;;5067082;28;20303;-76
2023/03/04 02:33:22;;;;;;;;;;;6.10;99.90;;;;;;5057429;28;20257;-76
2023/03/04 02:35:48;;;;;;;;;;;6.40;99.90;;;;;;5061237;28;20053;-76
2023/03/04 02:38:15;;;;;;;;;;;6.80;99.90;;;;;;5062067;28;19952;-76
2023/03/04 02:40:44;;;;;;;;;;;5.30;99.90;;;;;;5055922;28;19921;-76
2023/03/04 02:43:10;;;;;;;;;;;6.60;99.90;;;;;;5035749;28;19917;-76
2023/03/04 02:45:43;;;;;;;;;;;6.10;99.90;;;;;;5024429;28;19916;-76
2023/03/04 02:48:09;;;;;;;;;;;6.10;99.90;;;;;;5033618;28;19923;-76
2023/03/04 02:50:37;;;;;;;;;;;6.90;99.90;;;;;;5042965;28;19920;-76
2023/03/04 02:53:04;;;;;;;;;;;6.10;99.90;;;;;;5018624;28;19917;-76
2023/03/04 02:55:31;;;;;;;;;;;6.50;99.90;;;;;;5030651;28;20019;-76
2023/03/04 02:57:57;;;;;;;;;;;7.20;99.90;;;;;;5021975;28;20072;-76
2023/03/04 03:00:22;;;;;;;;;;;6.10;99.90;;;;;;5033978;28;19916;-76
2023/03/04 03:02:48;;;;;;;;;;;6.10;99.90;;;;;;5034511;28;19925;-76
2023/03/04 03:05:14;;;;;;;;;;;6.00;99.90;;;;;;5045512;28;20331;-76
2023/03/04 03:07:41;;;;;;;;;;;6.00;99.90;;;;;;5036938;28;19963;-76
2023/03/04 03:10:09;;;;;;;;;;;7.10;99.90;;;;;;5055736;28;19932;-76
2023/03/04 03:12:34;;;;;;;;;;;5.80;99.90;;;;;;5051740;28;19969;-76
2023/03/04 03:15:00;;;;;;;;;;;7.00;99.90;;;;;;5060357;28;19917;-76
2023/03/04 03:17:29;;;;;;;;;;;6.00;99.90;;;;;;5029358;28;19979;-76
2023/03/04 03:19:54;;;;;;;;;;;6.00;99.90;;;;;;5039436;28;19923;-76
2023/03/04 03:22:21;;;;;;;;;;;5.40;99.90;;;;;;5061166;28;19916;-76
2023/03/04 03:24:46;;;;;;;;;;;6.00;99.90;;;;;;5027627;28;20015;-76
2023/03/04 03:27:13;;;;;;;;;;;7.00;99.90;;;;;;5040342;28;20436;-76
2023/03/04 03:29:38;;;;;;;;;;;6.00;99.90;;;;;;5010167;28;20023;-76
2023/03/04 03:32:04;;;;;;;;;;;5.80;99.90;;;;;;5043501;28;19924;-76
2023/03/04 03:34:30;;;;;;;;;;;6.00;99.90;;;;;;5028992;28;20383;-76
2023/03/04 03:36:58;;;;;;;;;;;5.60;99.90;;;;;;5063006;28;19955;-76
2023/03/04 03:39:23;;;;;;;;;;;6.00;99.90;;;;;;5033631;28;19924;-76
2023/03/04 03:41:52;;;;;;;;;;;6.70;99.90;;;;;;5059235;28;19916;-76
2023/03/04 03:44:17;;;;;;;;;;;6.00;99.90;;;;;;5044369;28;19925;-76
2023/03/04 03:46:45;;;;;;;;;;;6.50;99.90;;;;;;5029983;28;19947;-77
2023/03/04 03:49:11;;;;;;;;;;;6.00;99.90;;;;;;5042990;28;19970;-77
2023/03/04 03:51:40;;;;;;;;;;;6.00;99.90;;;;;;5019322;28;19920;-77
2023/03/04 03:54:05;;;;;;;;;;;6.00;99.90;;;;;;5040648;28;20011;-77
2023/03/04 03:56:31;;;;;;;;;;;7.20;99.90;;;;;;5041696;28;20003;-77
2023/03/04 03:58:57;;;;;;;;;;;6.00;99.90;;;;;;5058341;28;19929;-77
2023/03/04 04:01:22;;;;;;;;;;;7.00;99.90;;;;;;5051235;28;20433;-77
2023/03/04 04:03:48;;;;;;;;;;;7.10;99.90;;;;;;5033266;28;20277;-77
2023/03/04 04:06:16;;;;;;;;;;;5.90;99.90;;;;;;5031299;28;19920;-76
2023/03/04 04:08:41;;;;;;;;;;;6.40;99.90;;;;;;5033619;28;19924;-76
2023/03/04 04:11:08;;;;;;;;;;;5.90;99.90;;;;;;5038894;28;19916;-75
2023/03/04 04:13:34;;;;;;;;;;;6.00;99.90;;;;;;5045289;28;19947;-76
2023/03/04 04:16:00;;;;;;;;;;;7.10;99.90;;;;;;5039666;28;19916;-77
2023/03/04 04:18:25;;;;;;;;;;;5.90;99.90;;;;;;5026661;28;19920;-77
2023/03/04 04:20:52;;;;;;;;;;;6.70;99.90;;;;;;5058586;28;19938;-77
2023/03/04 04:23:17;;;;;;;;;;;6.30;99.90;;;;;;5048329;28;19924;-77
2023/03/04 04:25:43;;;;;;;;;;;6.70;99.90;;;;;;5053585;28;19978;-76
2023/03/04 04:28:10;;;;;;;;;;;5.90;99.90;;;;;;5058809;28;19916;-77
2023/03/04 04:30:35;;;;;;;;;;;5.90;99.90;;;;;;5028961;28;20309;-77
2023/03/04 04:33:03;;;;;;;;;;;5.90;99.90;;;;;;5037118;28;20385;-76
2023/03/04 04:35:32;;;;;;;;;;;7.30;99.90;;;;;;5038614;28;19924;-77
2023/03/04 04:37:58;;;;;;;;;;;6.40;99.90;;;;;;5040169;28;19943;-77
2023/03/04 04:40:25;;;;;;;;;;;5.90;99.90;;;;;;5066931;28;19916;-77
2023/03/04 04:42:50;;;;;;;;;;;6.00;99.90;;;;;;5029406;28;19923;-76
2023/03/04 04:45:16;;;;;;;;;;;6.90;99.90;;;;;;5065370;28;19925;-76
2023/03/04 04:47:42;;;;;;;;;;;5.90;99.90;;;;;;5027308;28;19916;-77
2023/03/04 04:50:12;;;;;;;;;;;7.00;99.90;;;;;;5065188;28;19916;-77
2023/03/04 04:52:37;;;;;;;;;;;5.80;99.90;;;;;;5037912;28;19917;-77
2023/03/04 04:55:03;;;;;;;;;;;5.90;99.90;;;;;;5059828;22;19925;-60
2023/03/04 04:57:29;;;;;;;;;;;5.90;99.90;;;;;;5050441;28;19920;-61
2023/03/04 04:59:54;;;;;;;;;;;5.90;99.90;;;;;;5052764;28;19916;-61
2023/03/04 05:02:20;;;;;;;;;;;5.90;99.90;;;;;;5071787;28;19927;-62
2023/03/04 05:04:45;;;;;;;;;;;5.90;99.90;;;;;;5073185;28;20078;-60
2023/03/04 05:07:11;;;;;;;;;;;5.90;99.90;;;;;;5069559;28;20011;-61
2023/03/04 05:09:36;;;;;;;;;;;5.90;99.90;;;;;;5044507;28;19917;-63
2023/03/04 05:12:02;;;;;;;;;;;5.90;99.90;;;;;;5075330;28;19916;-60
2023/03/04 05:14:27;;;;;;;;;;;5.90;99.90;;;;;;5058702;28;20000;-63
2023/03/04 05:16:53;;;;;;;;;;;5.90;99.90;;;;;;5071816;28;19921;-62
2023/03/04 05:19:19;;;;;;;;;;;5.90;99.90;;;;;;5085208;28;19923;-62
2023/03/04 05:21:44;;;;;;;;;;;5.90;99.90;;;;;;5062060;28;20302;-63
2023/03/04 05:24:10;;;;;;;;;;;5.90;99.90;;;;;;5072133;28;19984;-61
2023/03/04 05:26:35;;;;;;;;;;;5.80;99.90;;;;;;5071211;28;19924;-61
2023/03/04 05:29:01;;;;;;;;;;;5.90;99.90;;;;;;5065725;28;19922;-62
2023/03/04 05:31:27;;;;;;;;;;;5.90;99.90;;;;;;5071451;28;19916;-63
2023/03/04 05:33:52;;;;;;;;;;;5.80;99.90;;;;;;5073797;28;19916;-62
2023/03/04 05:36:18;;;;;;;;;;;5.90;99.90;;;;;;5085403;28;20397;-61
2023/03/04 05:38:43;;;;;;;;;;;5.80;99.90;;;;;;5066521;28;20397;-61
2023/03/04 05:41:09;;;;;;;;;;;5.80;99.90;;;;;;5064891;28;19966;-62
2023/03/04 05:43:35;;;;;;;;;;;5.80;99.90;;;;;;5074660;28;20007;-61
2023/03/04 05:46:01;;;;;;;;;;;5.90;99.90;;;;;;5060896;28;19916;-61
2023/03/04 05:48:27;;;;;;;;;;;5.80;99.90;;;;;;5066301;28;19946;-60
2023/03/04 05:50:54;;;;;;;;;;;5.80;99.90;;;;;;5079736;28;20234;-62
2023/03/04 05:53:19;;;;;;;;;;;5.80;99.90;;;;;;5059237;28;20446;-63
2023/03/04 05:55:46;;;;;;;;;;;5.80;99.90;;;;;;5083290;28;19927;-61
2023/03/04 05:58:11;;;;;;;;;;;6.00;99.90;;;;;;5075268;28;19920;-63
2023/03/04 06:00:37;;;;;;;;;;;5.70;99.90;;;;;;5060432;28;20337;-60
2023/03/04 06:03:02;;;;;;;;;;;5.70;99.90;;;;;;5052028;28;20389;-61
2023/03/04 06:05:28;;;;;;;;;;;5.70;99.90;;;;;;5062980;28;20093;-62
2023/03/04 06:07:53;;;;;;;;;;;5.70;99.90;;;;;;5065542;28;20062;-61
2023/03/04 06:10:19;;;;;;;;;;;5.70;99.90;;;;;;5077776;28;19920;-61
2023/03/04 06:12:44;;;;;;;;;;;5.70;99.90;;;;;;5075874;28;19916;-61
2023/03/04 06:15:10;;;;;;;;;;;5.60;99.90;;;;;;5077985;28;19921;-62
2023/03/04 06:17:36;;;;;;;;;;;5.60;99.90;;;;;;5050713;28;19932;-63
2023/03/04 06:20:04;;;;;;;;;;;5.60;99.90;;;;;;5058549;28;19951;-63
2023/03/04 06:22:29;;;;;;;;;;;5.60;99.90;;;;;;5065407;28;19916;-61
2023/03/04 06:24:55;;;;;;;;;;;5.60;99.90;;;;;;5075203;28;19993;-62
2023/03/04 06:27:20;;;;;;;;;;;5.60;99.90;;;;;;5071059;28;20362;-64
2023/03/04 06:29:46;;;;;;;;;;;5.60;99.90;;;;;;5057191;28;20045;-61
2023/03/04 06:32:11;;;;;;;;;;;5.50;99.90;;;;;;5074493;28;19917;-61
2023/03/04 06:34:37;;;;;;;;;;;5.50;99.90;;;;;;5077719;28;20038;-63
2023/03/04 06:37:02;;;;;;;;;;;5.50;99.90;;;;;;5075690;28;19916;-60
2023/03/04 06:39:28;;;;;;;;;;;5.80;99.90;;;;;;5076543;28;20468;-61
2023/03/04 06:41:53;;;;;;;;;;;5.60;99.90;;;;;;5072763;28;19985;-61
2023/03/04 06:44:19;;;;;;;;;;;5.60;99.90;;;;;;5052129;28;19916;-61
2023/03/04 06:46:44;;;;;;;;;;;5.60;99.90;;;;;;5070991;28;19969;-60
2023/03/04 06:49:10;;;;;;;;;;;5.60;99.90;;;;;;5080079;28;20146;-62
2023/03/04 06:51:36;;;;;;;;;;;5.60;99.90;;;;;;5079365;28;19928;-62
2023/03/04 06:54:01;;;;;;;;;;;5.60;99.90;;;;;;5039553;28;20015;-62
2023/03/04 06:56:27;;;;;;;;;;;6.60;99.90;;;;;;5063749;28;19916;-64
2023/03/04 06:58:52;;;;;;;;;;;5.60;99.90;;;;;;5041751;28;20471;-62
2023/03/04 07:01:19;;;;;;;;;;;5.60;99.90;;;;;;5045493;28;20213;-62
2023/03/04 07:03:45;;;;;;;;;;;5.70;99.90;;;;;;5064540;28;20002;-61
2023/03/04 07:06:12;;;;;;;;;;;5.70;99.90;;;;;;5056274;28;19921;-62
2023/03/04 07:08:38;;;;;;;;;;;5.70;99.90;;;;;;5035540;28;19916;-63
2023/03/04 07:11:04;;;;;;;;;;;5.70;99.90;;;;;;5064765;28;20170;-62
2023/03/04 07:13:30;;;;;;;;;;;5.70;99.90;;;;;;5068856;28;19917;-64
2023/03/04 07:15:55;;;;;;;;;;;5.80;99.90;;;;;;5063144;28;19920;-63
2023/03/04 07:18:21;;;;;;;;;;;5.80;99.90;;;;;;5052453;28;19921;-61
2023/03/04 07:20:46;;;;;;;;;;;5.80;99.90;;;;;;5057520;28;19970;-62
2023/03/04 07:23:12;;;;;;;;;;;5.80;99.90;;;;;;5071407;28;19917;-62
2023/03/04 07:25:37;;;;;;;;;;;5.80;99.90;;;;;;5063802;28;19916;-61
2023/03/04 07:28:03;;;;;;;;;;;5.90;99.90;;;;;;5074662;28;19915;-62
2023/03/04 07:30:29;;;;;;;;;;;5.90;99.90;;;;;;5070085;28;19917;-62
2023/03/04 07:32:57;;;;;;;;;;;6.00;99.90;;;;;;5073327;28;19916;-62
2023/03/04 07:35:22;;;;;;;;;;;6.00;99.90;;;;;;5064048;28;19925;-62
2023/03/04 07:37:48;;;;;;;;;;;6.00;99.90;;;;;;5050738;28;20015;-62
2023/03/04 07:40:13;;;;;;;;;;;6.10;99.90;;;;;;5074184;28;20561;-62
2023/03/04 07:42:39;;;;;;;;;;;6.10;99.90;;;;;;5054127;28;19965;-62
2023/03/04 07:45:05;;;;;;;;;;;6.10;99.90;;;;;;5078309;28;20407;-63
2023/03/04 07:47:30;;;;;;;;;;;6.10;99.90;;;;;;5068738;28;19923;-63
2023/03/04 07:49:56;;;;;;;;;;;6.10;99.90;;;;;;5072957;28;19916;-61
2023/03/04 07:52:22;;;;;;;;;;;6.20;99.90;;;;;;5067560;28;19923;-62
2023/03/04 07:54:47;;;;;;;;;;;6.30;99.90;;;;;;5071078;28;20319;-64
2023/03/04 07:57:13;;;;;;;;;;;6.40;99.90;;;;;;5055588;28;19967;-64
2023/03/04 07:59:38;;;;;;;;;;;6.30;99.90;;;;;;5082849;28;20030;-60
2023/03/04 08:02:04;;;;;;;;;;;6.40;99.90;;;;;;5060328;28;19916;-62
2023/03/04 08:04:29;;;;;;;;;;;6.40;99.90;;;;;;5055703;28;19920;-62
2023/03/04 08:06:55;;;;;;;;;;;6.40;99.90;;;;;;5081222;28;20309;-60
2023/03/04 08:09:20;;;;;;;;;;;6.50;99.90;;;;;;5060082;28;20369;-61
2023/03/04 08:11:46;;;;;;;;;;;6.50;99.90;;;;;;5079861;28;19924;-62
2023/03/04 08:14:12;;;;;;;;;;;6.50;99.90;;;;;;5066892;28;19969;-64
2023/03/04 08:16:38;;;;;;;;;;;6.50;99.90;;;;;;5079985;28;19916;-62
2023/03/04 08:19:04;;;;;;;;;;;6.50;99.90;;;;;;5064967;28;19935;-65
2023/03/04 08:21:30;;;;;;;;;;;6.50;99.90;;;;;;5074167;28;19924;-64
2023/03/04 08:24:01;;;;;;;;;;;6.60;99.90;;;;;;5081684;28;19920;-66
2023/03/04 08:26:28;;;;;;;;;;;6.60;99.90;;;;;;5064627;28;19916;-64
2023/03/04 08:28:55;;;;;;;;;;;6.60;99.90;;;;;;5074968;28;19923;-65
2023/03/04 08:31:21;;;;;;;;;;;6.60;99.90;;;;;;5079595;28;19922;-63
2023/03/04 08:33:46;;;;;;;;;;;6.60;99.90;;;;;;5069005;28;19917;-63
2023/03/04 08:36:12;;;;;;;;;;;6.60;99.90;;;;;;5048373;28;19916;-65
2023/03/04 08:38:38;;;;;;;;;;;6.60;99.90;;;;;;5071844;28;19920;-65
2023/03/04 08:41:04;;;;;;;;;;;6.60;99.90;;;;;;5046443;28;19927;-62
2023/03/04 08:43:30;;;;;;;;;;;6.60;99.90;;;;;;5054506;28;20315;-62
2023/03/04 08:45:56;;;;;;;;;;;6.60;99.90;;;;;;5066686;28;19921;-62
2023/03/04 08:48:21;;;;;;;;;;;6.60;99.90;;;;;;5045786;28;19927;-62
2023/03/04 08:50:48;;;;;;;;;;;6.60;99.90;;;;;;5059154;28;19924;-62
2023/03/04 08:53:13;;;;;;;;;;;6.60;99.90;;;;;;5062858;28;19917;-62
2023/03/04 08:55:39;;;;;;;;;;;6.70;99.90;;;;;;5045412;28;20377;-62
2023/03/04 08:58:05;;;;;;;;;;;6.70;99.90;;;;;;5049318;28;20407;-63
2023/03/04 09:00:31;;;;;;;;;;;6.70;99.90;;;;;;5054103;28;20003;-62
2023/03/04 09:02:57;;;;;;;;;;;6.80;99.90;;;;;;5071462;28;19962;-62
2023/03/04 09:05:22;;;;;;;;;;;6.90;99.90;;;;;;5075593;28;20377;-63
2023/03/04 09:07:48;;;;;;;;;;;6.90;99.90;;;;;;5060068;28;19916;-63
2023/03/04 09:10:14;;;;;;;;;;;6.90;99.90;;;;;;5059312;28;20286;-64
2023/03/04 09:12:39;;;;;;;;;;;6.90;99.90;;;;;;5060439;28;20007;-63
2023/03/04 09:15:05;;;;;;;;;;;6.90;99.90;;;;;;5040249;28;19947;-64
2023/03/04 09:17:31;;;;;;;;;;;6.90;99.90;;;;;;5057331;28;20019;-63
2023/03/04 09:19:57;;;;;;;;;;;7.00;99.90;;;;;;5040277;28;19923;-63
2023/03/04 09:22:22;;;;;;;;;;;6.10;99.90;;;;;;5037779;28;19921;-63
2023/03/04 09:24:48;;;;;;;;;;;7.00;99.90;;;;;;5063740;28;20011;-62
2023/03/04 09:27:13;;;;;;;;;;;7.20;99.90;;;;;;5041808;28;19927;-63
2023/03/04 09:29:39;;;;;;;;;;;7.00;99.90;;;;;;5060943;28;20328;-63
2023/03/04 09:32:04;;;;;;;;;;;7.00;99.90;;;;;;5042461;28;19916;-63
2023/03/04 09:34:30;;;;;;;;;;;7.00;99.90;;;;;;5043397;28;19916;-63
2023/03/04 09:36:55;;;;;;;;;;;7.10;99.90;;;;;;5060103;28;19924;-63
2023/03/04 09:39:21;;;;;;;;;;;7.10;99.90;;;;;;5068742;28;19916;-63
2023/03/04 09:41:48;;;;;;;;;;;7.10;99.90;;;;;;5065159;28;19923;-63
2023/03/04 09:44:20;;;;;;;;;;;7.30;99.90;;;;;;5074831;28;19923;-63
2023/03/04 09:46:46;;;;;;;;;;;7.10;99.90;;;;;;5053003;28;19920;-62
2023/03/04 09:49:12;;;;;;;;;;;7.20;99.90;;;;;;5068343;28;19916;-63
2023/03/04 09:51:40;;;;;;;;;;;7.20;99.90;;;;;;5067014;28;19979;-63
2023/03/04 09:54:07;;;;;;;;;;;7.30;99.90;;;;;;5077135;28;19919;-66
2023/03/04 09:56:35;;;;;;;;;;;7.40;99.90;;;;;;5072387;28;19916;-63
2023/03/04 09:59:13;;;;;;;;;;;7.40;99.90;;;;;;5073266;28;19920;-62
2023/03/04 10:01:42;;;;;;;;;;;7.50;99.90;;;;;;5060462;28;20011;-62
2023/03/04 10:04:16;;;;;;;;;;;7.50;99.90;;;;;;5073443;28;19916;-63
2023/03/04 10:06:42;;;;;;;;;;;7.40;99.90;;;;;;5079715;28;19917;-63
2023/03/04 10:09:14;;;;;;;;;;;7.40;99.90;;;;;;5059047;28;19924;-63
2023/03/04 10:11:45;;;;;;;;;;;7.30;99.90;;;;;;5058683;28;19917;-63
2023/03/04 10:14:20;;;;;;;;;;;7.40;99.90;;;;;;5059907;28;20366;-62
2023/03/04 10:17:05;;;;;;;;;;;7.40;99.90;;;;;;5042821;28;19982;-63
2023/03/04 10:19:50;;;;;;;;;;;7.40;99.90;;;;;;5038439;28;19927;-61
2023/03/04 10:22:29;;;;;;;;;;;7.40;99.90;;;;;;5054303;28;20378;-63
2023/03/04 10:24:56;;;;;;;;;;;7.40;99.90;;;;;;5058215;28;20026;-62
2023/03/04 10:27:23;;;;;;;;;;;7.50;99.90;;;;;;5058635;28;19920;-63
2023/03/04 10:29:49;;;;;;;;;;;7.50;99.90;;;;;;5060651;28;19924;-63
2023/03/04 10:32:16;;;;;;;;;;;7.70;99.90;;;;;;5056756;28;19916;-63
2023/03/04 10:34:42;;;;;;;;;;;7.50;99.90;;;;;;5054845;28;19924;-63
2023/03/04 10:37:08;;;;;;;;;;;7.50;99.90;;;;;;5061299;28;19936;-63
2023/03/04 10:39:54;;;;;;;;;;;7.70;99.90;;;;;;5062335;28;19916;-62
2023/03/04 10:42:26;;;;;;;;;;;7.60;99.90;;;;;;5050097;28;19923;-63
2023/03/04 10:44:51;;;;;;;;;;;7.50;99.90;;;;;;5070011;28;19969;-63
2023/03/04 10:47:17;;;;;;;;;;;7.50;99.90;;;;;;5072478;28;20365;-62
2023/03/04 10:49:53;;;;;;;;;;;7.50;99.90;;;;;;5065552;28;19921;-63
2023/03/04 10:52:42;;;;;;;;;;;7.40;99.90;;;;;;5047093;28;19931;-63
2023/03/04 10:55:15;;;;;;;;;;;7.30;99.90;;;;;;5064920;22;19915;-76
2023/03/04 10:57:43;;;;;;;;;;;7.20;99.90;;;;;;5034862;28;19924;-76
2023/03/04 11:00:28;;;;;;;;;;;7.20;99.90;;;;;;5033553;28;20371;-79
2023/03/04 11:03:19;;;;;;;;;;;7.20;99.90;;;;;;5035032;28;19923;-78
2023/03/04 11:06:08;;;;;;;;;;;7.30;99.90;;;;;;5053354;28;20240;-79
2023/03/04 11:08:58;;;;;;;;;;;7.30;99.90;;;;;;5042998;28;19970;-80
2023/03/04 11:11:44;;;;;;;;;;;7.30;99.90;;;;;;5054767;28;19966;-79
2023/03/04 11:14:43;;;;;;;;;;;7.40;99.90;;;;;;5036363;28;20383;-79
2023/03/04 11:21:51;;;;;;;;;;;7.50;99.90;;;;;;5048713;28;19916;-80
2023/03/04 11:27:55;;;;;;;;;;;7.50;99.90;;;;;;5049327;28;19920;-80
2023/03/04 11:31:18;;;;;;;;;;;7.40;99.90;;;;;;4983333;28;19918;-80
2023/03/04 11:34:42;;;;;;;;;;;7.50;99.90;;;;;;4946394;29;19917;-80
2023/03/04 11:45:22;;;;;;;;;;;7.90;99.90;;;;;;4763102;30;19922;-79
2023/03/04 11:52:12;;;;;;;;;;;7.80;99.90;;;;;;4724704;30;19921;-80
2023/03/04 11:58:55;;;;;;;;;;;7.80;99.90;;;;;;4790417;29;20036;-80
2023/03/04 12:05:55;;;;;;;;;;;7.70;99.90;;;;;;4797816;29;20398;-80
2023/03/04 12:19:06;;;;;;;;;;;8.00;99.90;;;;;;4808972;29;19928;-81
2023/03/04 12:22:13;;;;;;;;;;;8.00;99.90;;;;;;4800488;29;20366;-81
2023/03/04 12:25:17;;;;;;;;;;;8.20;99.90;;;;;;4914121;29;20524;-79
2023/03/04 12:28:50;;;;;;;;;;;8.30;99.90;;;;;;4955269;28;20382;-79
2023/03/04 12:31:40;;;;;;;;;;;8.30;99.90;;;;;;4939879;29;20434;-79
2023/03/04 12:37:57;;;;;;;;;;;8.30;99.90;;;;;;5043197;28;20037;-80
2023/03/04 12:40:58;;;;;;;;;;;8.30;99.90;;;;;;5028419;28;20339;-80
2023/03/04 12:44:01;;;;;;;;;;;8.20;99.90;;;;;;5029478;28;19997;-80
2023/03/04 12:46:57;;;;;;;;;;;8.20;99.90;;;;;;5019806;28;19984;-79
2023/03/04 12:50:20;;;;;;;;;;;8.20;99.90;;;;;;5023476;28;20419;-81
2023/03/04 12:56:36;;;;;;;;;;;8.60;99.90;;;;;;5024388;28;19920;-80
2023/03/04 12:59:58;;;;;;;;;;;8.70;99.90;;;;;;4982428;28;19936;-80
2023/03/04 13:03:04;;;;;;;;;;;8.80;99.90;;;;;;4974041;28;19916;-80
2023/03/04 13:15:38;;;;;;;;;;;8.50;99.90;;;;;;5034730;28;20293;-79
2023/03/04 13:18:32;;;;;;;;;;;8.40;99.90;;;;;;5023750;28;19928;-80
2023/03/04 13:21:38;;;;;;;;;;;8.40;99.90;;;;;;5032924;28;20395;-80
2023/03/04 13:28:02;;;;;;;;;;;8.20;99.90;;;;;;4955022;28;19918;-80
2023/03/04 13:31:26;;;;;;;;;;;8.10;99.90;;;;;;4971350;28;19960;-80
2023/03/04 13:34:14;;;;;;;;;;;8.10;99.90;;;;;;4976131;28;19921;-80
2023/03/04 13:37:03;;;;;;;;;;;8.20;99.90;;;;;;4980200;28;19924;-80
2023/03/04 13:40:11;;;;;;;;;;;8.60;99.90;;;;;;5003675;28;19928;-80
2023/03/04 13:43:10;;;;;;;;;;;8.20;99.90;;;;;;4995396;28;19933;-80
2023/03/04 13:49:55;;;;;;;;;;;8.10;99.90;;;;;;4974811;28;19918;-80
2023/03/04 13:52:54;;;;;;;;;;;8.00;99.90;;;;;;5009585;28;19928;-79
2023/03/04 13:55:41;;;;;;;;;;;7.90;99.90;;;;;;4989906;28;19921;-79
2023/03/04 13:58:26;;;;;;;;;;;7.90;99.90;;;;;;4978298;28;19927;-79
2023/03/04 14:01:34;;;;;;;;;;;7.90;99.90;;;;;;4949038;28;20008;-79
2023/03/04 14:04:42;;;;;;;;;;;7.80;99.90;;;;;;4926876;29;19938;-79
2023/03/04 14:07:36;;;;;;;;;;;7.90;99.90;;;;;;4933421;29;20331;-79
2023/03/04 14:10:42;;;;;;;;;;;7.90;99.90;;;;;;4909579;29;19926;-79
2023/03/04 14:13:22;;;;;;;;;;;7.90;99.90;;;;;;4985963;28;20339;-79
2023/03/04 14:16:13;;;;;;;;;;;7.80;99.90;;;;;;5029872;28;19917;-79
2023/03/04 14:19:09;;;;;;;;;;;7.90;99.90;;;;;;5040840;28;20368;-79
2023/03/04 14:22:14;;;;;;;;;;;7.90;99.90;;;;;;5078726;28;19917;-79
2023/03/04 14:25:14;;;;;;;;;;;7.90;99.90;;;;;;5066593;28;19920;-79
2023/03/04 14:28:05;;;;;;;;;;;7.90;99.90;;;;;;5051803;28;19920;-79
2023/03/04 14:34:02;;;;;;;;;;;8.00;99.90;;;;;;5050375;28;19920;-78
2023/03/04 14:36:53;;;;;;;;;;;8.00;99.90;;;;;;5047126;28;20296;-80
2023/03/04 14:39:54;;;;;;;;;;;8.10;99.90;;;;;;5045415;28;19960;-79
2023/03/04 14:42:43;;;;;;;;;;;8.10;99.90;;;;;;5046143;28;19915;-79
2023/03/04 14:45:16;;;;;;;;;;;8.00;99.90;;;;;;5033569;28;19917;-78
2023/03/04 14:47:50;;;;;;;;;;;8.00;99.90;;;;;;5034370;28;19916;-78
2023/03/04 14:50:41;;;;;;;;;;;8.00;99.90;;;;;;5033404;28;19939;-79
2023/03/04 14:53:50;;;;;;;;;;;7.90;99.90;;;;;;5050337;28;19920;-80
2023/03/04 14:57:07;;;;;;;;;;;7.90;99.90;;;;;;5058028;28;19958;-79
2023/03/04 15:00:20;;;;;;;;;;;8.30;99.90;;;;;;5057106;28;19962;-79
2023/03/04 15:03:20;;;;;;;;;;;7.90;99.90;;;;;;5032674;28;19993;-80
2023/03/04 15:06:25;;;;;;;;;;;7.90;99.90;;;;;;5047011;28;20029;-80
2023/03/04 15:09:13;;;;;;;;;;;8.00;99.90;;;;;;5022791;28;19917;-80
2023/03/04 15:15:42;;;;;;;;;;;8.00;99.90;;;;;;5049303;28;19928;-80
2023/03/04 15:18:30;;;;;;;;;;;7.90;99.90;;;;;;5082178;28;20368;-79
2023/03/04 15:21:39;;;;;;;;;;;7.80;99.90;;;;;;5050890;28;19924;-79
2023/03/04 15:24:41;;;;;;;;;;;7.80;99.90;;;;;;5052243;28;19996;-79
2023/03/04 15:27:29;;;;;;;;;;;7.80;99.90;;;;;;5054266;28;19920;-79
2023/03/04 15:30:11;;;;;;;;;;;7.90;99.90;;;;;;5045650;28;19917;-78
2023/03/04 15:32:47;;;;;;;;;;;7.80;99.90;;;;;;5052060;28;20414;-79
2023/03/04 15:35:46;;;;;;;;;;;7.70;99.90;;;;;;5034528;28;20369;-79
2023/03/04 15:38:17;;;;;;;;;;;7.60;99.90;;;;;;5050990;28;19974;-79
2023/03/04 15:41:04;;;;;;;;;;;7.60;99.90;;;;;;5023621;28;19970;-79
2023/03/04 15:43:33;;;;;;;;;;;7.50;99.90;;;;;;5038153;28;19999;-79
2023/03/04 15:46:04;;;;;;;;;;;7.50;99.90;;;;;;5033246;28;19924;-79
2023/03/04 15:49:00;;;;;;;;;;;7.50;99.90;;;;;;5045031;28;19923;-79
2023/03/04 15:52:11;;;;;;;;;;;7.40;99.90;;;;;;5049302;28;19917;-79
2023/03/04 15:54:59;;;;;;;;;;;7.40;99.90;;;;;;5051453;28;19974;-79
2023/03/04 15:57:49;;;;;;;;;;;7.30;99.90;;;;;;5041662;28;20451;-78
2023/03/04 16:00:39;;;;;;;;;;;7.30;99.90;;;;;;5034044;28;19927;-79
2023/03/04 16:03:09;;;;;;;;;;;7.30;99.90;;;;;;5031637;28;19971;-79
2023/03/04 16:05:49;;;;;;;;;;;7.30;99.90;;;;;;5034528;28;19917;-79
2023/03/04 16:08:25;;;;;;;;;;;7.20;99.90;;;;;;5027716;28;19939;-79
2023/03/04 16:10:55;;;;;;;;;;;7.30;99.90;;;;;;5034160;28;20333;-79
2023/03/04 16:13:23;;;;;;;;;;;7.10;99.90;;;;;;5048798;28;20003;-79
2023/03/04 16:16:30;;;;;;;;;;;7.10;99.90;;;;;;5051741;28;19924;-80